createdAt,value
2023-09-29T00:00:26.505Z,100595.41
2023-09-29T00:01:29.468Z,100583.75
2023-09-29T00:02:31.951Z,100584.03
2023-09-29T00:03:34.604Z,100594.66
2023-09-29T00:04:38.125Z,100589.38
2023-09-29T00:05:40.603Z,100588.81
2023-09-29T00:06:42.948Z,100589.94
2023-09-29T00:07:45.677Z,100591.09
2023-09-29T00:08:48.010Z,100595.31
2023-09-29T00:09:50.586Z,100584.41
2023-09-29T00:10:53.076Z,100589.47
2023-09-29T00:11:55.536Z,100587.50
2023-09-29T00:12:59.894Z,100587.00
2023-09-29T00:14:02.360Z,100586.44
2023-09-29T00:15:06.097Z,100592.00
2023-09-29T00:16:09.007Z,100582.28
2023-09-29T00:17:12.931Z,100581.75
2023-09-29T00:18:16.979Z,100581.22
2023-09-29T00:19:19.418Z,100582.31
2023-09-29T00:20:27.630Z,100579.84
2023-09-29T00:21:30.168Z,100588.19
2023-09-29T00:22:33.732Z,100584.03
2023-09-29T00:23:36.523Z,100580.69
2023-09-29T00:24:39.005Z,100582.66
2023-09-29T00:25:41.534Z,100587.69
2023-09-29T00:26:43.924Z,100577.69
2023-09-29T00:27:46.573Z,100584.38
2023-09-29T00:28:49.092Z,100590.56
2023-09-29T00:29:53.142Z,100591.38
2023-09-29T00:30:55.591Z,100589.19
2023-09-29T00:31:58.545Z,100592.22
2023-09-29T00:33:03.731Z,100592.22
2023-09-29T00:34:07.477Z,100586.13
2023-09-29T00:35:11.371Z,100590.88
2023-09-29T00:36:13.754Z,100583.91
2023-09-29T00:37:16.447Z,100590.34
2023-09-29T00:38:18.820Z,100589.50
2023-09-29T00:39:21.703Z,100591.47
2023-09-29T00:40:24.988Z,100593.41
2023-09-29T00:41:27.469Z,100591.75
2023-09-29T00:42:30.018Z,100592.06
2023-09-29T00:43:33.552Z,100592.06
2023-09-29T00:44:36.319Z,100585.94
2023-09-29T00:45:39.127Z,100595.09
2023-09-29T00:46:41.745Z,100580.66
2023-09-29T00:47:46.659Z,100577.31
2023-09-29T00:48:50.969Z,100581.25
2023-09-29T00:49:53.400Z,100581.25
2023-09-29T00:50:55.808Z,100576.78
2023-09-29T00:52:02.400Z,100578.72
2023-09-29T00:53:11.482Z,100576.22
2023-09-29T00:54:15.609Z,100581.00
2023-09-29T00:55:23.552Z,100573.75
2023-09-29T00:56:26.225Z,100570.41
2023-09-29T00:57:29.285Z,100575.72
2023-09-29T00:58:32.118Z,100569.88
2023-09-29T00:59:35.539Z,100570.69
2023-09-29T01:00:39.474Z,100567.91
2023-09-29T01:01:43.030Z,100562.09
2023-09-29T01:02:45.846Z,100566.53
2023-09-29T01:03:49.144Z,100565.72
2023-09-29T01:04:51.635Z,100561.28
2023-09-29T01:05:54.368Z,100564.34
2023-09-29T01:06:58.248Z,100560.47
2023-09-29T01:08:00.760Z,100565.16
2023-09-29T01:09:05.652Z,100562.38
2023-09-29T01:10:12.292Z,100568.81
2023-09-29T01:11:14.704Z,100566.03
2023-09-29T01:12:28.626Z,100566.28
2023-09-29T01:13:31.809Z,100576.59
2023-09-29T01:14:34.274Z,100565.47
2023-09-29T01:15:38.180Z,100564.34
2023-09-29T01:16:42.394Z,100560.72
2023-09-29T01:17:45.241Z,100572.13
2023-09-29T01:18:48.583Z,100565.16
2023-09-29T01:19:51.052Z,100563.50
2023-09-29T01:20:54.482Z,100570.22
2023-09-29T01:21:58.150Z,100573.53
2023-09-29T01:23:03.156Z,100574.66
2023-09-29T01:24:08.710Z,100576.31
2023-09-29T01:25:11.751Z,100572.41
2023-09-29T01:26:14.202Z,100570.75
2023-09-29T01:27:16.515Z,100569.63
2023-09-29T01:28:20.051Z,100565.16
2023-09-29T01:29:22.505Z,100563.50
2023-09-29T01:30:27.169Z,100559.31
2023-09-29T01:31:29.630Z,100567.13
2023-09-29T01:32:32.103Z,100566.28
2023-09-29T01:33:34.671Z,100563.50
2023-09-29T01:34:38.220Z,100567.13
2023-09-29T01:35:45.542Z,100571.84
2023-09-29T01:36:49.929Z,100577.16
2023-09-29T01:37:56.750Z,100566.28
2023-09-29T01:38:59.526Z,100569.06
2023-09-29T01:40:02.081Z,100573.53
2023-09-29T01:41:04.433Z,100573.00
2023-09-29T01:42:08.837Z,100563.50
2023-09-29T01:43:11.859Z,100567.13
2023-09-29T01:44:14.486Z,100561.88
2023-09-29T01:45:17.732Z,100559.91
2023-09-29T01:46:20.414Z,100560.16
2023-09-29T01:47:23.435Z,100561.28
2023-09-29T01:48:26.014Z,100564.06
2023-09-29T01:49:28.531Z,100561.28
2023-09-29T01:50:34.401Z,100562.41
2023-09-29T01:51:36.930Z,100558.25
2023-09-29T01:52:39.664Z,100557.72
2023-09-29T01:53:42.087Z,100557.72
2023-09-29T01:54:44.781Z,100558.81
2023-09-29T01:55:47.431Z,100559.13
2023-09-29T01:56:49.986Z,100554.38
2023-09-29T01:57:58.026Z,100560.25
2023-09-29T01:59:02.501Z,100562.47
2023-09-29T02:00:06.331Z,100560.84
2023-09-29T02:01:15.916Z,100564.44
2023-09-29T02:02:18.330Z,100561.09
2023-09-29T02:03:21.060Z,100567.50
2023-09-29T02:04:23.625Z,100563.06
2023-09-29T02:05:26.178Z,100565.84
2023-09-29T02:06:29.243Z,100565.03
2023-09-29T02:07:31.707Z,100568.06
2023-09-29T02:08:34.230Z,100564.47
2023-09-29T02:09:37.660Z,100557.53
2023-09-29T02:10:40.621Z,100565.59
2023-09-29T02:11:43.602Z,100561.13
2023-09-29T02:12:56.091Z,100557.53
2023-09-29T02:13:58.640Z,100553.91
2023-09-29T02:15:02.294Z,100555.56
2023-09-29T02:16:11.148Z,100564.22
2023-09-29T02:17:14.570Z,100563.69
2023-09-29T02:18:17.091Z,100565.63
2023-09-29T02:19:19.896Z,100555.31
2023-09-29T02:20:32.374Z,100555.88
2023-09-29T02:21:35.001Z,100564.78
2023-09-29T02:22:37.407Z,100565.91
2023-09-29T02:23:39.802Z,100558.66
2023-09-29T02:24:42.269Z,100569.81
2023-09-29T02:25:45.530Z,100569.28
2023-09-29T02:26:47.959Z,100559.78
2023-09-29T02:27:50.551Z,100562.88
2023-09-29T02:28:56.349Z,100568.44
2023-09-29T02:29:59.893Z,100565.34
2023-09-29T02:31:03.742Z,100565.66
2023-09-29T02:32:06.498Z,100570.09
2023-09-29T02:33:10.230Z,100566.19
2023-09-29T02:34:13.912Z,100568.44
2023-09-29T02:35:17.477Z,100565.41
2023-09-29T02:36:22.895Z,100568.72
2023-09-29T02:37:25.234Z,100567.91
2023-09-29T02:38:27.713Z,100567.91
2023-09-29T02:39:31.000Z,100561.47
2023-09-29T02:40:33.390Z,100561.78
2023-09-29T02:41:36.683Z,100557.88
2023-09-29T02:42:39.564Z,100565.13
2023-09-29T02:43:41.905Z,100559.56
2023-09-29T02:44:44.904Z,100565.94
2023-09-29T02:45:47.323Z,100558.69
2023-09-29T02:46:49.776Z,100565.41
2023-09-29T02:47:53.780Z,100559.00
2023-09-29T02:48:56.521Z,100552.63
2023-09-29T02:49:59.862Z,100557.63
2023-09-29T02:51:02.215Z,100555.69
2023-09-29T02:52:05.736Z,100546.19
2023-09-29T02:53:09.551Z,100554.03
2023-09-29T02:54:12.234Z,100558.72
2023-09-29T02:55:16.968Z,100558.72
2023-09-29T02:56:19.943Z,100557.91
2023-09-29T02:57:23.688Z,100556.81
2023-09-29T02:58:26.196Z,100552.06
2023-09-29T02:59:28.557Z,100551.53
2023-09-29T03:00:32.986Z,100556.81
2023-09-29T03:01:36.346Z,100555.94
2023-09-29T03:02:38.873Z,100551.53
2023-09-29T03:03:45.570Z,100549.84
2023-09-29T03:04:48.817Z,100547.63
2023-09-29T03:05:51.225Z,100553.19
2023-09-29T03:06:53.790Z,100550.41
2023-09-29T03:07:56.966Z,100549.03
2023-09-29T03:09:00.484Z,100558.25
2023-09-29T03:10:07.586Z,100549.34
2023-09-29T03:11:13.697Z,100552.13
2023-09-29T03:12:18.218Z,100552.41
2023-09-29T03:13:20.670Z,100559.34
2023-09-29T03:14:23.312Z,100553.22
2023-09-29T03:15:28.182Z,100552.41
2023-09-29T03:16:30.938Z,100551.59
2023-09-29T03:17:36.034Z,100547.13
2023-09-29T03:18:40.650Z,100552.69
2023-09-29T03:19:43.534Z,100547.97
2023-09-29T03:20:45.999Z,100553.81
2023-09-29T03:21:49.854Z,100541.00
2023-09-29T03:22:53.305Z,100542.16
2023-09-29T03:23:56.028Z,100551.63
2023-09-29T03:24:59.289Z,100549.34
2023-09-29T03:26:02.918Z,100546.56
2023-09-29T03:27:05.488Z,100551.31
2023-09-29T03:28:12.488Z,100547.72
2023-09-29T03:29:16.420Z,100543.78
2023-09-29T03:30:18.952Z,100543.78
2023-09-29T03:31:23.638Z,100542.97
2023-09-29T03:32:26.808Z,100550.22
2023-09-29T03:33:31.048Z,100545.47
2023-09-29T03:34:33.445Z,100532.66
2023-09-29T03:35:35.889Z,100544.09
2023-09-29T03:36:38.356Z,100545.19
2023-09-29T03:37:41.219Z,100534.38
2023-09-29T03:38:44.528Z,100544.66
2023-09-29T03:39:49.362Z,100546.59
2023-09-29T03:40:54.005Z,100538.25
2023-09-29T03:41:56.892Z,100544.66
2023-09-29T03:42:59.841Z,100543.81
2023-09-29T03:44:02.714Z,100550.75
2023-09-29T03:45:07.186Z,100545.78
2023-09-29T03:46:20.913Z,100549.69
2023-09-29T03:47:23.256Z,100545.53
2023-09-29T03:48:27.189Z,100555.53
2023-09-29T03:49:32.410Z,100553.56
2023-09-29T03:50:35.507Z,100555.81
2023-09-29T03:51:39.968Z,100547.78
2023-09-29T03:52:47.646Z,100542.22
2023-09-29T03:53:54.174Z,100552.50
2023-09-29T03:54:56.650Z,100556.13
2023-09-29T03:56:00.688Z,100548.88
2023-09-29T03:57:05.431Z,100552.78
2023-09-29T03:58:07.833Z,100557.22
2023-09-29T03:59:10.433Z,100550.56
2023-09-29T04:00:15.501Z,100553.34
2023-09-29T04:01:18.456Z,100554.97
2023-09-29T04:02:22.076Z,100555.81
2023-09-29T04:03:24.556Z,100547.78
2023-09-29T04:04:27.216Z,100552.19
2023-09-29T04:05:29.652Z,100554.97
2023-09-29T04:06:32.271Z,100553.34
2023-09-29T04:07:40.172Z,100551.09
2023-09-29T04:08:43.880Z,100554.97
2023-09-29T04:09:46.317Z,100545.53
2023-09-29T04:10:48.643Z,100553.34
2023-09-29T04:11:50.998Z,100546.91
2023-09-29T04:12:53.415Z,100540.53
2023-09-29T04:13:55.895Z,100549.69
2023-09-29T04:14:58.368Z,100546.91
2023-09-29T04:16:07.961Z,100556.13
2023-09-29T04:17:10.287Z,100552.50
2023-09-29T04:18:13.459Z,100555.28
2023-09-29T04:19:17.174Z,100549.44
2023-09-29T04:20:19.503Z,100547.50
2023-09-29T04:21:21.870Z,100550.56
2023-09-29T04:22:25.454Z,100552.22
2023-09-29T04:23:28.546Z,100556.16
2023-09-29T04:24:31.012Z,100559.19
2023-09-29T04:25:33.455Z,100551.13
2023-09-29T04:26:36.957Z,100545.56
2023-09-29T04:27:40.742Z,100546.94
2023-09-29T04:28:44.083Z,100549.72
2023-09-29T04:29:46.823Z,100551.41
2023-09-29T04:30:49.373Z,100552.50
2023-09-29T04:31:51.726Z,100546.94
2023-09-29T04:32:54.366Z,100554.47
2023-09-29T04:33:56.763Z,100556.41
2023-09-29T04:34:59.420Z,100554.47
2023-09-29T04:36:01.936Z,100551.13
2023-09-29T04:37:04.488Z,100556.41
2023-09-29T04:38:06.983Z,100553.91
2023-09-29T04:39:09.586Z,100563.94
2023-09-29T04:40:13.266Z,100559.47
2023-09-29T04:41:17.188Z,100558.38
2023-09-29T04:42:19.764Z,100553.09
2023-09-29T04:43:22.150Z,100563.09
2023-09-29T04:44:24.565Z,100559.47
2023-09-29T04:45:27.003Z,100559.75
2023-09-29T04:46:30.514Z,100552.25
2023-09-29T04:47:34.032Z,100553.38
2023-09-29T04:48:36.948Z,100557.00
2023-09-29T04:49:42.574Z,100555.03
2023-09-29T04:50:45.002Z,100554.22
2023-09-29T04:51:47.478Z,100560.88
2023-09-29T04:52:49.904Z,100562.84
2023-09-29T04:53:52.599Z,100555.31
2023-09-29T04:54:55.222Z,100553.69
2023-09-29T04:56:02.370Z,100562.84
2023-09-29T04:57:04.859Z,100560.59
2023-09-29T04:58:07.254Z,100565.63
2023-09-29T04:59:10.212Z,100571.19
2023-09-29T05:00:13.132Z,100560.06
2023-09-29T05:01:22.205Z,100560.88
2023-09-29T05:02:26.274Z,100563.94
2023-09-29T05:03:28.855Z,100564.50
2023-09-29T05:04:31.502Z,100562.03
2023-09-29T05:05:34.791Z,100553.94
2023-09-29T05:06:37.240Z,100552.81
2023-09-29T05:07:39.589Z,100553.94
2023-09-29T05:08:41.928Z,100557.28
2023-09-29T05:09:47.294Z,100559.25
2023-09-29T05:10:49.869Z,100558.94
2023-09-29T05:11:52.292Z,100558.09
2023-09-29T05:12:54.660Z,100559.25
2023-09-29T05:13:57.318Z,100558.66
2023-09-29T05:14:59.729Z,100569.78
2023-09-29T05:16:03.166Z,100562.56
2023-09-29T05:17:05.681Z,100566.44
2023-09-29T05:18:08.299Z,100567.59
2023-09-29T05:19:11.569Z,100566.44
2023-09-29T05:20:14.380Z,100565.63
2023-09-29T05:21:17.105Z,100564.22
2023-09-29T05:22:20.636Z,100556.69
2023-09-29T05:23:23.045Z,100567.53
2023-09-29T05:24:25.487Z,100556.69
2023-09-29T05:25:28.381Z,100558.38
2023-09-29T05:26:30.751Z,100568.38
2023-09-29T05:27:34.102Z,100561.72
2023-09-29T05:28:38.421Z,100565.88
2023-09-29T05:29:41.211Z,100563.91
2023-09-29T05:30:56.937Z,100566.69
2023-09-29T05:31:59.588Z,100563.91
2023-09-29T05:33:02.219Z,100565.88
2023-09-29T05:34:04.670Z,100567.25
2023-09-29T05:35:08.525Z,100568.88
2023-09-29T05:36:10.931Z,100565.00
2023-09-29T05:37:13.454Z,100563.88
2023-09-29T05:38:15.922Z,100571.94
2023-09-29T05:39:19.075Z,100561.66
2023-09-29T05:40:21.413Z,100557.72
2023-09-29T05:41:23.976Z,100554.69
2023-09-29T05:42:36.889Z,100563.56
2023-09-29T05:43:47.726Z,100559.38
2023-09-29T05:44:50.137Z,100570.50
2023-09-29T05:45:52.727Z,100556.31
2023-09-29T05:46:55.591Z,100560.16
2023-09-29T05:47:58.026Z,100571.56
2023-09-29T05:49:00.450Z,100566.56
2023-09-29T05:50:16.902Z,100567.63
2023-09-29T05:51:21.341Z,100563.16
2023-09-29T05:52:26.694Z,100573.69
2023-09-29T05:53:29.009Z,100570.38
2023-09-29T05:54:32.492Z,100573.13
2023-09-29T05:55:36.208Z,100573.38
2023-09-29T05:56:38.764Z,100580.03
2023-09-29T05:57:41.120Z,100580.81
2023-09-29T05:58:43.566Z,100573.53
2023-09-29T05:59:47.827Z,100583.56
2023-09-29T06:00:50.165Z,100584.34
2023-09-29T06:02:01.938Z,100580.69
2023-09-29T06:03:11.348Z,100577.88
2023-09-29T06:04:14.354Z,100576.41
2023-09-29T06:05:16.907Z,100582.47
2023-09-29T06:06:20.027Z,100576.53
2023-09-29T06:07:22.652Z,100573.44
2023-09-29T06:08:26.932Z,100575.88
2023-09-29T06:09:32.859Z,100578.84
2023-09-29T06:10:35.246Z,100578.53
2023-09-29T06:11:37.577Z,100579.00
2023-09-29T06:12:39.972Z,100587.53
2023-09-29T06:13:43.638Z,100579.69
2023-09-29T06:14:46.187Z,100583.78
2023-09-29T06:15:48.614Z,100585.63
2023-09-29T06:16:51.252Z,100596.13
2023-09-29T06:17:53.794Z,100591.53
2023-09-29T06:18:56.423Z,100586.94
2023-09-29T06:19:59.703Z,100590.47
2023-09-29T06:21:02.591Z,100597.03
2023-09-29T06:22:06.185Z,100589.63
2023-09-29T06:23:09.138Z,100591.47
2023-09-29T06:24:12.023Z,100582.44
2023-09-29T06:25:14.616Z,100587.88
2023-09-29T06:26:17.010Z,100597.22
2023-09-29T06:27:19.399Z,100590.63
2023-09-29T06:28:24.892Z,100594.09
2023-09-29T06:29:27.619Z,100590.59
2023-09-29T06:30:30.487Z,100583.72
2023-09-29T06:31:32.884Z,100588.28
2023-09-29T06:32:36.416Z,100599.28
2023-09-29T06:33:40.107Z,100593.00
2023-09-29T06:34:42.884Z,100588.66
2023-09-29T06:35:45.307Z,100595.72
2023-09-29T06:36:47.748Z,100598.63
2023-09-29T06:37:50.281Z,100587.84
2023-09-29T06:38:52.816Z,100596.03
2023-09-29T06:39:55.724Z,100593.88
2023-09-29T06:41:00.109Z,100600.41
2023-09-29T06:42:04.522Z,100589.28
2023-09-29T06:43:07.841Z,100595.53
2023-09-29T06:44:10.319Z,100591.97
2023-09-29T06:45:13.178Z,100593.72
2023-09-29T06:46:15.982Z,100595.44
2023-09-29T06:47:18.439Z,100590.75
2023-09-29T06:48:21.196Z,100602.84
2023-09-29T06:49:23.950Z,100603.75
2023-09-29T06:50:26.344Z,100597.88
2023-09-29T06:51:30.785Z,100598.00
2023-09-29T06:52:36.290Z,100596.06
2023-09-29T06:53:38.713Z,100598.28
2023-09-29T06:54:41.140Z,100602.28
2023-09-29T06:55:43.479Z,100594.75
2023-09-29T06:56:46.017Z,100594.81
2023-09-29T06:57:49.672Z,100595.19
2023-09-29T06:58:52.232Z,100592.41
2023-09-29T06:59:55.034Z,100598.41
2023-09-29T07:01:01.804Z,100606.03
2023-09-29T07:02:05.011Z,100606.41
2023-09-29T07:03:14.369Z,100602.28
2023-09-29T07:04:18.228Z,100602.63
2023-09-29T07:05:20.762Z,100595.72
2023-09-29T07:06:24.858Z,100599.19
2023-09-29T07:07:27.636Z,100598.72
2023-09-29T07:08:31.499Z,100602.38
2023-09-29T07:09:37.558Z,100594.13
2023-09-29T07:10:40.121Z,100595.09
2023-09-29T07:11:43.571Z,100594.94
2023-09-29T07:12:47.457Z,100593.50
2023-09-29T07:13:50.829Z,100605.91
2023-09-29T07:14:53.289Z,100604.09
2023-09-29T07:15:55.653Z,100599.13
2023-09-29T07:16:58.094Z,100597.31
2023-09-29T07:18:00.752Z,100596.31
2023-09-29T07:19:04.804Z,100601.78
2023-09-29T07:20:07.908Z,100592.34
2023-09-29T07:21:12.613Z,100598.97
2023-09-29T07:22:15.871Z,100589.53
2023-09-29T07:23:18.397Z,100595.81
2023-09-29T07:24:22.710Z,100596.47
2023-09-29T07:25:27.244Z,100602.41
2023-09-29T07:26:30.610Z,100594.63
2023-09-29T07:27:33.603Z,100592.16
2023-09-29T07:28:35.961Z,100590.84
2023-09-29T07:29:38.899Z,100594.75
2023-09-29T07:30:46.262Z,100591.47
2023-09-29T07:31:49.747Z,100599.38
2023-09-29T07:32:52.095Z,100600.16
2023-09-29T07:33:54.698Z,100591.53
2023-09-29T07:34:57.250Z,100597.47
2023-09-29T07:36:00.034Z,100588.81
2023-09-29T07:37:02.649Z,100593.94
2023-09-29T07:38:06.273Z,100591.44
2023-09-29T07:39:08.764Z,100594.88
2023-09-29T07:40:11.603Z,100591.53
2023-09-29T07:41:14.296Z,100589.72
2023-09-29T07:42:18.810Z,100597.97
2023-09-29T07:43:21.175Z,100592.16
2023-09-29T07:44:23.984Z,100587.81
2023-09-29T07:45:26.451Z,100598.84
2023-09-29T07:46:29.961Z,100594.69
2023-09-29T07:47:32.557Z,100592.81
2023-09-29T07:48:35.108Z,100593.81
2023-09-29T07:49:41.842Z,100596.44
2023-09-29T07:50:44.521Z,100592.56
2023-09-29T07:51:48.173Z,100588.72
2023-09-29T07:52:51.907Z,100595.00
2023-09-29T07:53:54.996Z,100598.31
2023-09-29T07:54:57.561Z,100583.19
2023-09-29T07:55:59.917Z,100592.25
2023-09-29T07:57:03.584Z,100587.25
2023-09-29T07:58:07.816Z,100586.19
2023-09-29T07:59:10.177Z,100588.47
2023-09-29T08:00:18.083Z,100590.72
2023-09-29T08:01:20.608Z,100584.53
2023-09-29T08:02:22.989Z,100595.59
2023-09-29T08:03:25.858Z,100595.03
2023-09-29T08:04:28.429Z,100596.13
2023-09-29T08:05:30.807Z,100600.03
2023-09-29T08:06:33.302Z,100591.34
2023-09-29T08:07:36.110Z,100588.75
2023-09-29T08:08:38.637Z,100587.38
2023-09-29T08:09:41.208Z,100581.13
2023-09-29T08:10:43.678Z,100588.34
2023-09-29T08:11:46.247Z,100595.06
2023-09-29T08:12:48.883Z,100590.81
2023-09-29T08:13:53.661Z,100587.09
2023-09-29T08:14:57.207Z,100586.13
2023-09-29T08:15:59.761Z,100598.50
2023-09-29T08:17:02.492Z,100585.44
2023-09-29T08:18:06.372Z,100587.66
2023-09-29T08:19:10.931Z,100587.06
2023-09-29T08:20:16.188Z,100587.16
2023-09-29T08:21:18.944Z,100586.94
2023-09-29T08:22:30.211Z,100585.50
2023-09-29T08:23:36.758Z,100588.09
2023-09-29T08:24:40.651Z,100587.03
2023-09-29T08:25:44.718Z,100590.91
2023-09-29T08:26:47.274Z,100587.81
2023-09-29T08:27:49.771Z,100592.41
2023-09-29T08:28:52.129Z,100596.16
2023-09-29T08:29:55.987Z,100588.97
2023-09-29T08:31:00.122Z,100585.06
2023-09-29T08:32:02.805Z,100583.16
2023-09-29T08:33:18.901Z,100583.63
2023-09-29T08:34:30.497Z,100588.22
2023-09-29T08:35:32.982Z,100583.91
2023-09-29T08:36:35.528Z,100586.03
2023-09-29T08:37:38.001Z,100582.97
2023-09-29T08:38:40.421Z,100589.53
2023-09-29T08:39:42.861Z,100580.34
2023-09-29T08:40:48.061Z,100584.94
2023-09-29T08:42:06.842Z,100583.81
2023-09-29T08:43:12.286Z,100587.56
2023-09-29T08:44:19.561Z,100582.00
2023-09-29T08:45:22.971Z,100578.91
2023-09-29T08:46:25.527Z,100580.69
2023-09-29T08:47:31.703Z,100575.94
2023-09-29T08:48:35.183Z,100581.75
2023-09-29T08:49:49.747Z,100580.78
2023-09-29T08:50:57.354Z,100590.66
2023-09-29T08:52:02.083Z,100584.69
2023-09-29T08:53:05.607Z,100589.41
2023-09-29T08:54:09.791Z,100579.78
2023-09-29T08:55:15.994Z,100582.00
2023-09-29T08:56:20.254Z,100574.84
2023-09-29T08:57:25.132Z,100581.13
2023-09-29T08:58:29.966Z,100579.22
2023-09-29T08:59:33.946Z,100578.09
2023-09-29T09:00:41.850Z,100576.63
2023-09-29T09:01:47.503Z,100582.81
2023-09-29T09:02:50.676Z,100579.72
2023-09-29T09:03:53.496Z,100580.63
2023-09-29T09:04:58.457Z,100580.72
2023-09-29T09:06:00.867Z,100577.13
2023-09-29T09:07:03.657Z,100581.25
2023-09-29T09:08:06.361Z,100583.34
2023-09-29T09:09:10.386Z,100574.47
2023-09-29T09:10:23.193Z,100574.94
2023-09-29T09:11:44.717Z,100576.19
2023-09-29T09:12:48.008Z,100572.91
2023-09-29T09:14:00.493Z,100574.56
2023-09-29T09:15:10.476Z,100576.53
2023-09-29T09:16:14.789Z,100567.97
2023-09-29T09:17:18.131Z,100574.47
2023-09-29T09:18:20.591Z,100572.00
2023-09-29T09:19:23.141Z,100575.22
2023-09-29T09:20:26.281Z,100569.91
2023-09-29T09:21:34.757Z,100571.91
2023-09-29T09:23:45.644Z,100565.34
2023-09-29T09:24:49.834Z,100562.91
2023-09-29T09:25:54.487Z,100566.09
2023-09-29T09:27:03.813Z,100565.25
2023-09-29T09:28:07.692Z,100569.28
2023-09-29T09:29:10.672Z,100557.50
2023-09-29T09:30:25.452Z,100555.88
2023-09-29T09:31:28.726Z,100561.88
2023-09-29T09:32:33.084Z,100561.03
2023-09-29T09:33:37.220Z,100558.19
2023-09-29T09:34:41.419Z,100557.06
2023-09-29T09:35:44.145Z,100556.22
2023-09-29T09:36:52.029Z,100553.03
2023-09-29T09:37:54.930Z,100557.06
2023-09-29T09:38:57.508Z,100545.34
2023-09-29T09:40:01.268Z,100551.84
2023-09-29T09:41:04.335Z,100553.50
2023-09-29T09:42:07.649Z,100538.09
2023-09-29T09:43:12.448Z,100542.59
2023-09-29T09:44:14.824Z,100543.75
2023-09-29T09:45:17.544Z,100549.91
2023-09-29T09:46:21.767Z,100542.59
2023-09-29T09:47:26.749Z,100539.38
2023-09-29T09:48:52.040Z,100545.94
2023-09-29T09:49:58.960Z,100541.91
2023-09-29T09:51:04.436Z,100536.69
2023-09-29T09:52:14.092Z,100545.28
2023-09-29T09:53:20.470Z,100543.34
2023-09-29T09:54:32.023Z,100536.53
2023-09-29T09:55:43.000Z,100542.75
2023-09-29T09:57:02.926Z,100530.66
2023-09-29T09:58:11.046Z,100536.41
2023-09-29T09:59:17.093Z,100536.09
2023-09-29T10:00:21.166Z,100527.66
2023-09-29T10:01:26.799Z,100522.50
2023-09-29T10:02:30.418Z,100529.88
2023-09-29T10:03:34.202Z,100529.97
2023-09-29T10:04:39.769Z,100524.00
2023-09-29T10:05:43.950Z,100525.34
2023-09-29T10:06:46.492Z,100525.41
2023-09-29T10:07:50.129Z,100530.31
2023-09-29T10:08:59.899Z,100520.69
2023-09-29T10:10:02.476Z,100521.56
2023-09-29T10:11:12.658Z,100515.13
2023-09-29T10:12:30.459Z,100520.88
2023-09-29T10:13:36.887Z,100511.59
2023-09-29T10:14:46.175Z,100515.69
2023-09-29T10:15:57.946Z,100523.09
2023-09-29T10:17:04.540Z,100513.38
2023-09-29T10:18:21.736Z,100509.75
2023-09-29T10:19:24.216Z,100507.38
2023-09-29T10:20:30.307Z,100509.84
2023-09-29T10:21:44.147Z,100505.88
2023-09-29T10:22:49.358Z,100506.78
2023-09-29T10:23:52.092Z,100501.50
2023-09-29T10:24:58.698Z,100499.13
2023-09-29T10:26:04.183Z,100505.69
2023-09-29T10:27:13.290Z,100503.25
2023-09-29T10:28:19.051Z,100505.34
2023-09-29T10:29:28.268Z,100511.09
2023-09-29T10:30:31.727Z,100510.31
2023-09-29T10:31:34.166Z,100508.75
2023-09-29T10:32:36.644Z,100510.41
2023-09-29T10:33:56.357Z,100512.94
2023-09-29T10:35:06.497Z,100517.03
2023-09-29T10:36:11.014Z,100510.59
2023-09-29T10:37:14.801Z,100514.72
2023-09-29T10:38:24.645Z,100514.38
2023-09-29T10:39:28.701Z,100513.16
2023-09-29T10:40:34.036Z,100514.44
2023-09-29T10:41:38.721Z,100522.59
2023-09-29T10:42:43.678Z,100512.50
2023-09-29T10:43:49.726Z,100509.25
2023-09-29T10:44:58.603Z,100516.19
2023-09-29T10:46:09.604Z,100509.72
2023-09-29T10:47:25.982Z,100514.66
2023-09-29T10:48:31.679Z,100512.69
2023-09-29T10:49:36.089Z,100512.72
2023-09-29T10:50:46.312Z,100512.78
2023-09-29T10:51:48.788Z,100513.63
2023-09-29T10:52:51.098Z,100514.53
2023-09-29T10:53:54.154Z,100510.91
2023-09-29T10:55:00.543Z,100515.00
2023-09-29T10:56:05.346Z,100505.28
2023-09-29T10:57:13.183Z,100510.63
2023-09-29T10:58:17.040Z,100512.72
2023-09-29T10:59:19.830Z,100505.47
2023-09-29T11:00:22.435Z,100518.09
2023-09-29T11:01:35.630Z,100510.81
2023-09-29T11:02:38.352Z,100509.22
2023-09-29T11:03:41.064Z,100512.09
2023-09-29T11:04:48.296Z,100505.63
2023-09-29T11:05:53.957Z,100509.28
2023-09-29T11:06:56.400Z,100505.69
2023-09-29T11:08:00.502Z,100505.69
2023-09-29T11:09:03.193Z,100504.09
2023-09-29T11:10:12.990Z,100499.19
2023-09-29T11:11:15.468Z,100492.31
2023-09-29T11:12:18.902Z,100491.91
2023-09-29T11:13:21.308Z,100498.84
2023-09-29T11:14:26.355Z,100489.50
2023-09-29T11:15:30.066Z,100488.28
2023-09-29T11:16:34.404Z,100490.31
2023-09-29T11:17:52.233Z,100489.91
2023-09-29T11:18:58.097Z,100485.06
2023-09-29T11:20:01.091Z,100480.16
2023-09-29T11:21:10.523Z,100483.47
2023-09-29T11:22:19.919Z,100472.88
2023-09-29T11:23:22.467Z,100476.94
2023-09-29T11:24:24.983Z,100477.38
2023-09-29T11:25:27.620Z,100476.97
2023-09-29T11:26:31.879Z,100471.69
2023-09-29T11:27:35.415Z,100466.38
2023-09-29T11:28:56.532Z,100474.53
2023-09-29T11:29:59.162Z,100466.84
2023-09-29T11:31:02.809Z,100463.16
2023-09-29T11:32:05.540Z,100455.03
2023-09-29T11:33:12.451Z,100453.00
2023-09-29T11:34:16.618Z,100452.19
2023-09-29T11:35:23.000Z,100448.16
2023-09-29T11:36:28.786Z,100444.91
2023-09-29T11:37:31.628Z,100451.41
2023-09-29T11:38:35.035Z,100454.25
2023-09-29T11:39:39.711Z,100451.03
2023-09-29T11:40:42.787Z,100453.88
2023-09-29T11:41:49.105Z,100455.09
2023-09-29T11:42:51.607Z,100447.75
2023-09-29T11:43:54.230Z,100455.09
2023-09-29T11:44:56.806Z,100453.44
2023-09-29T11:45:59.249Z,100452.63
2023-09-29T11:47:01.711Z,100452.25
2023-09-29T11:48:04.606Z,100453.44
2023-09-29T11:49:08.807Z,100449.78
2023-09-29T11:50:14.061Z,100459.13
2023-09-29T11:51:16.903Z,100455.03
2023-09-29T11:52:19.421Z,100450.16
2023-09-29T11:53:22.181Z,100451.41
2023-09-29T11:54:24.657Z,100452.59
2023-09-29T11:55:27.324Z,100453.00
2023-09-29T11:56:29.679Z,100459.06
2023-09-29T11:57:32.199Z,100457.44
2023-09-29T11:58:34.857Z,100450.91
2023-09-29T11:59:37.213Z,100452.94
2023-09-29T12:00:43.570Z,100448.88
2023-09-29T12:01:46.058Z,100451.72
2023-09-29T12:02:48.857Z,100455.75
2023-09-29T12:03:51.818Z,100453.31
2023-09-29T12:04:54.366Z,100448.81
2023-09-29T12:05:57.880Z,100450.84
2023-09-29T12:07:00.367Z,100452.06
2023-09-29T12:08:05.762Z,100443.53
2023-09-29T12:09:08.279Z,100439.03
2023-09-29T12:10:11.204Z,100444.31
2023-09-29T12:11:18.069Z,100440.22
2023-09-29T12:12:20.638Z,100438.63
2023-09-29T12:13:23.128Z,100443.47